sensor_id;sensor_type;location;lat;lon;timestamp;temperature;humidity
49124;DHT22;48506;48.202;16.274;2023-05-23T00:01:15;17.10;99.90
49124;DHT22;48506;48.202;16.274;2023-05-23T00:03:42;17.00;99.90
49124;DHT22;48506;48.202;16.274;2023-05-23T00:06:08;17.00;99.90
49124;DHT22;48506;48.202;16.274;2023-05-23T00:08:34;16.90;99.90
49124;DHT22;48506;48.202;16.274;2023-05-23T00:11:00;16.90;99.90
49124;DHT22;48506;48.202;16.274;2023-05-23T00:13:26;16.90;99.90
49124;DHT22;48506;48.202;16.274;2023-05-23T00:15:52;16.90;99.90
49124;DHT22;48506;48.202;16.274;2023-05-23T00:18:18;16.80;99.90
49124;DHT22;48506;48.202;16.274;2023-05-23T00:20:44;16.80;99.90
49124;DHT22;48506;48.202;16.274;2023-05-23T00:23:12;16.80;99.90
49124;DHT22;48506;48.202;16.274;2023-05-23T00:25:44;16.80;99.90
49124;DHT22;48506;48.202;16.274;2023-05-23T00:28:13;16.80;99.90
49124;DHT22;48506;48.202;16.274;2023-05-23T00:30:40;16.70;99.90
49124;DHT22;48506;48.202;16.274;2023-05-23T00:33:06;16.70;99.90
49124;DHT22;48506;48.202;16.274;2023-05-23T00:35:32;16.70;99.90
49124;DHT22;48506;48.202;16.274;2023-05-23T00:37:58;16.60;99.90
49124;DHT22;48506;48.202;16.274;2023-05-23T00:40:24;16.50;99.90
49124;DHT22;48506;48.202;16.274;2023-05-23T00:42:50;16.50;99.90
49124;DHT22;48506;48.202;16.274;2023-05-23T00:45:16;16.50;99.90
49124;DHT22;48506;48.202;16.274;2023-05-23T00:47:43;16.50;99.90
49124;DHT22;48506;48.202;16.274;2023-05-23T00:50:12;16.50;99.90
49124;DHT22;48506;48.202;16.274;2023-05-23T00:52:43;16.50;99.90
49124;DHT22;48506;48.202;16.274;2023-05-23T00:55:10;16.40;99.90
49124;DHT22;48506;48.202;16.274;2023-05-23T00:57:37;16.40;99.90
49124;DHT22;48506;48.202;16.274;2023-05-23T01:00:08;16.40;99.90
49124;DHT22;48506;48.202;16.274;2023-05-23T01:02:43;16.40;99.90
49124;DHT22;48506;48.202;16.274;2023-05-23T01:05:11;16.40;99.90
49124;DHT22;48506;48.202;16.274;2023-05-23T01:07:40;16.30;99.90
49124;DHT22;48506;48.202;16.274;2023-05-23T01:10:07;16.30;99.90
49124;DHT22;48506;48.202;16.274;2023-05-23T01:15:49;16.30;99.90
49124;DHT22;48506;48.202;16.274;2023-05-23T01:18:36;16.30;99.90
49124;DHT22;48506;48.202;16.274;2023-05-23T01:21:08;16.30;99.90
49124;DHT22;48506;48.202;16.274;2023-05-23T01:29:28;16.30;99.90
49124;DHT22;48506;48.202;16.274;2023-05-23T01:31:57;16.30;99.90
49124;DHT22;48506;48.202;16.274;2023-05-23T01:34:23;16.30;99.90
49124;DHT22;48506;48.202;16.274;2023-05-23T01:36:53;16.30;99.90
49124;DHT22;48506;48.202;16.274;2023-05-23T01:39:20;16.30;99.90
49124;DHT22;48506;48.202;16.274;2023-05-23T01:41:47;16.30;99.90
49124;DHT22;48506;48.202;16.274;2023-05-23T01:44:13;16.30;99.90
49124;DHT22;48506;48.202;16.274;2023-05-23T01:46:40;16.20;99.90
49124;DHT22;48506;48.202;16.274;2023-05-23T01:49:11;16.20;99.90
49124;DHT22;48506;48.202;16.274;2023-05-23T01:51:38;16.20;99.90
49124;DHT22;48506;48.202;16.274;2023-05-23T01:54:05;16.10;99.90
49124;DHT22;48506;48.202;16.274;2023-05-23T01:56:32;16.10;99.90
49124;DHT22;48506;48.202;16.274;2023-05-23T01:58:58;16.00;99.90
49124;DHT22;48506;48.202;16.274;2023-05-23T02:01:24;16.00;99.90
49124;DHT22;48506;48.202;16.274;2023-05-23T02:03:50;16.00;99.90
49124;DHT22;48506;48.202;16.274;2023-05-23T02:06:16;16.00;99.90
49124;DHT22;48506;48.202;16.274;2023-05-23T02:08:42;16.00;99.90
49124;DHT22;48506;48.202;16.274;2023-05-23T02:11:08;16.00;99.90
49124;DHT22;48506;48.202;16.274;2023-05-23T02:13:35;16.00;99.90
49124;DHT22;48506;48.202;16.274;2023-05-23T02:16:01;15.90;99.90
49124;DHT22;48506;48.202;16.274;2023-05-23T02:18:27;15.90;99.90
49124;DHT22;48506;48.202;16.274;2023-05-23T02:20:55;15.80;99.90
49124;DHT22;48506;48.202;16.274;2023-05-23T02:23:21;15.80;99.90
49124;DHT22;48506;48.202;16.274;2023-05-23T02:25:47;15.70;99.90
49124;DHT22;48506;48.202;16.274;2023-05-23T02:28:13;15.70;99.90
49124;DHT22;48506;48.202;16.274;2023-05-23T02:30:39;15.70;99.90
49124;DHT22;48506;48.202;16.274;2023-05-23T02:33:06;15.70;99.90
49124;DHT22;48506;48.202;16.274;2023-05-23T02:35:32;15.70;99.90
49124;DHT22;48506;48.202;16.274;2023-05-23T02:37:59;15.60;99.90
49124;DHT22;48506;48.202;16.274;2023-05-23T02:40:25;15.60;99.90
49124;DHT22;48506;48.202;16.274;2023-05-23T02:42:51;15.60;99.90
49124;DHT22;48506;48.202;16.274;2023-05-23T02:45:17;15.60;99.90
49124;DHT22;48506;48.202;16.274;2023-05-23T02:47:43;15.70;99.90
49124;DHT22;48506;48.202;16.274;2023-05-23T02:50:09;15.70;99.90
49124;DHT22;48506;48.202;16.274;2023-05-23T02:52:35;15.70;99.90
49124;DHT22;48506;48.202;16.274;2023-05-23T02:55:01;15.70;99.90
49124;DHT22;48506;48.202;16.274;2023-05-23T02:57:27;15.70;99.90
49124;DHT22;48506;48.202;16.274;2023-05-23T02:59:53;15.70;99.90
49124;DHT22;48506;48.202;16.274;2023-05-23T03:02:19;15.60;99.90
49124;DHT22;48506;48.202;16.274;2023-05-23T03:04:46;15.60;99.90
49124;DHT22;48506;48.202;16.274;2023-05-23T03:07:12;15.60;99.90
49124;DHT22;48506;48.202;16.274;2023-05-23T03:09:40;15.60;99.90
49124;DHT22;48506;48.202;16.274;2023-05-23T03:12:06;15.60;99.90
49124;DHT22;48506;48.202;16.274;2023-05-23T03:14:32;15.60;99.90
49124;DHT22;48506;48.202;16.274;2023-05-23T03:16:57;15.50;99.90
49124;DHT22;48506;48.202;16.274;2023-05-23T03:19:23;15.40;99.90
49124;DHT22;48506;48.202;16.274;2023-05-23T03:21:49;15.30;99.90
49124;DHT22;48506;48.202;16.274;2023-05-23T03:24:17;15.30;99.90
49124;DHT22;48506;48.202;16.274;2023-05-23T03:26:43;15.30;99.90
49124;DHT22;48506;48.202;16.274;2023-05-23T03:29:09;15.30;99.90
49124;DHT22;48506;48.202;16.274;2023-05-23T03:31:36;15.20;99.90
49124;DHT22;48506;48.202;16.274;2023-05-23T03:34:03;15.20;99.90
49124;DHT22;48506;48.202;16.274;2023-05-23T03:36:31;15.20;99.90
49124;DHT22;48506;48.202;16.274;2023-05-23T03:39:03;15.30;99.90
49124;DHT22;48506;48.202;16.274;2023-05-23T03:41:30;15.30;99.90
49124;DHT22;48506;48.202;16.274;2023-05-23T03:43:56;15.30;99.90
49124;DHT22;48506;48.202;16.274;2023-05-23T03:46:22;15.40;99.90
49124;DHT22;48506;48.202;16.274;2023-05-23T03:48:48;15.40;99.90
49124;DHT22;48506;48.202;16.274;2023-05-23T03:51:14;15.30;99.90
49124;DHT22;48506;48.202;16.274;2023-05-23T03:53:40;15.30;99.90
49124;DHT22;48506;48.202;16.274;2023-05-23T03:56:06;15.30;99.90
49124;DHT22;48506;48.202;16.274;2023-05-23T03:58:32;15.40;99.90
49124;DHT22;48506;48.202;16.274;2023-05-23T04:00:58;15.40;99.90
49124;DHT22;48506;48.202;16.274;2023-05-23T04:03:24;15.40;99.90
49124;DHT22;48506;48.202;16.274;2023-05-23T04:05:52;15.40;99.90
49124;DHT22;48506;48.202;16.274;2023-05-23T04:08:18;15.50;99.90
49124;DHT22;48506;48.202;16.274;2023-05-23T04:10:46;15.50;99.90
49124;DHT22;48506;48.202;16.274;2023-05-23T04:13:13;15.60;99.90
49124;DHT22;48506;48.202;16.274;2023-05-23T04:15:39;15.60;99.90
49124;DHT22;48506;48.202;16.274;2023-05-23T04:18:06;15.60;99.90
49124;DHT22;48506;48.202;16.274;2023-05-23T04:20:33;15.60;99.90
49124;DHT22;48506;48.202;16.274;2023-05-23T04:22:59;15.70;99.90
49124;DHT22;48506;48.202;16.274;2023-05-23T04:25:25;15.70;99.90
49124;DHT22;48506;48.202;16.274;2023-05-23T04:27:51;15.80;99.90
49124;DHT22;48506;48.202;16.274;2023-05-23T04:30:19;15.90;99.90
49124;DHT22;48506;48.202;16.274;2023-05-23T04:32:45;16.00;99.90
49124;DHT22;48506;48.202;16.274;2023-05-23T04:35:11;16.00;99.90
49124;DHT22;48506;48.202;16.274;2023-05-23T04:37:37;16.00;99.90
49124;DHT22;48506;48.202;16.274;2023-05-23T04:40:05;16.10;99.90
49124;DHT22;48506;48.202;16.274;2023-05-23T04:42:32;16.10;99.90
49124;DHT22;48506;48.202;16.274;2023-05-23T04:44:58;16.20;99.90
49124;DHT22;48506;48.202;16.274;2023-05-23T04:47:24;16.30;99.90
49124;DHT22;48506;48.202;16.274;2023-05-23T04:49:53;16.40;99.90
49124;DHT22;48506;48.202;16.274;2023-05-23T04:52:19;16.40;99.90
49124;DHT22;48506;48.202;16.274;2023-05-23T04:54:46;16.50;99.90
49124;DHT22;48506;48.202;16.274;2023-05-23T04:57:13;16.50;99.90
49124;DHT22;48506;48.202;16.274;2023-05-23T04:59:39;16.70;99.90
49124;DHT22;48506;48.202;16.274;2023-05-23T05:02:05;16.80;99.90
49124;DHT22;48506;48.202;16.274;2023-05-23T05:04:31;17.00;99.90
49124;DHT22;48506;48.202;16.274;2023-05-23T05:06:57;17.10;99.90
49124;DHT22;48506;48.202;16.274;2023-05-23T05:09:23;17.20;99.90
49124;DHT22;48506;48.202;16.274;2023-05-23T05:11:50;17.40;99.90
49124;DHT22;48506;48.202;16.274;2023-05-23T05:14:16;17.50;99.90
49124;DHT22;48506;48.202;16.274;2023-05-23T05:16:42;17.70;99.90
49124;DHT22;48506;48.202;16.274;2023-05-23T05:19:09;17.80;99.90
49124;DHT22;48506;48.202;16.274;2023-05-23T05:21:35;18.00;99.90
49124;DHT22;48506;48.202;16.274;2023-05-23T05:24:01;18.10;99.90
49124;DHT22;48506;48.202;16.274;2023-05-23T05:26:27;18.20;99.90
49124;DHT22;48506;48.202;16.274;2023-05-23T05:28:53;18.30;99.90
49124;DHT22;48506;48.202;16.274;2023-05-23T05:31:19;18.50;99.90
49124;DHT22;48506;48.202;16.274;2023-05-23T05:33:45;18.60;99.90
49124;DHT22;48506;48.202;16.274;2023-05-23T05:36:11;18.70;99.90
49124;DHT22;48506;48.202;16.274;2023-05-23T05:38:37;18.90;99.90
49124;DHT22;48506;48.202;16.274;2023-05-23T05:41:03;19.10;99.90
49124;DHT22;48506;48.202;16.274;2023-05-23T05:43:29;19.20;99.80
49124;DHT22;48506;48.202;16.274;2023-05-23T05:45:56;19.30;99.40
49124;DHT22;48506;48.202;16.274;2023-05-23T05:48:21;19.40;98.70
49124;DHT22;48506;48.202;16.274;2023-05-23T05:50:47;19.40;98.60
49124;DHT22;48506;48.202;16.274;2023-05-23T05:53:13;19.50;98.60
49124;DHT22;48506;48.202;16.274;2023-05-23T05:55:39;19.50;98.10
49124;DHT22;48506;48.202;16.274;2023-05-23T05:58:05;19.60;98.20
49124;DHT22;48506;48.202;16.274;2023-05-23T06:00:32;19.70;98.00
49124;DHT22;48506;48.202;16.274;2023-05-23T06:03:00;19.90;98.20
49124;DHT22;48506;48.202;16.274;2023-05-23T06:05:25;19.90;97.50
49124;DHT22;48506;48.202;16.274;2023-05-23T06:07:51;20.00;97.50
49124;DHT22;48506;48.202;16.274;2023-05-23T06:10:18;20.10;97.30
49124;DHT22;48506;48.202;16.274;2023-05-23T06:12:44;20.20;97.80
49124;DHT22;48506;48.202;16.274;2023-05-23T06:15:10;20.30;97.40
49124;DHT22;48506;48.202;16.274;2023-05-23T06:17:38;20.40;97.10
49124;DHT22;48506;48.202;16.274;2023-05-23T06:20:04;20.50;97.00
49124;DHT22;48506;48.202;16.274;2023-05-23T06:22:30;20.60;97.50
49124;DHT22;48506;48.202;16.274;2023-05-23T06:24:56;20.80;96.80
49124;DHT22;48506;48.202;16.274;2023-05-23T06:27:22;20.90;96.80
49124;DHT22;48506;48.202;16.274;2023-05-23T06:29:48;21.00;96.90
49124;DHT22;48506;48.202;16.274;2023-05-23T06:32:13;21.10;96.20
49124;DHT22;48506;48.202;16.274;2023-05-23T06:34:39;21.20;96.70
49124;DHT22;48506;48.202;16.274;2023-05-23T06:37:05;21.30;95.80
49124;DHT22;48506;48.202;16.274;2023-05-23T06:39:31;21.50;96.00
49124;DHT22;48506;48.202;16.274;2023-05-23T06:41:57;21.60;95.40
49124;DHT22;48506;48.202;16.274;2023-05-23T06:44:23;21.70;95.20
49124;DHT22;48506;48.202;16.274;2023-05-23T06:46:49;21.70;94.70
49124;DHT22;48506;48.202;16.274;2023-05-23T06:49:15;21.80;95.10
49124;DHT22;48506;48.202;16.274;2023-05-23T06:51:41;21.90;95.30
49124;DHT22;48506;48.202;16.274;2023-05-23T06:54:07;22.00;94.90
49124;DHT22;48506;48.202;16.274;2023-05-23T06:56:33;22.20;94.90
49124;DHT22;48506;48.202;16.274;2023-05-23T06:58:59;22.40;95.00
49124;DHT22;48506;48.202;16.274;2023-05-23T07:01:25;22.50;93.80
49124;DHT22;48506;48.202;16.274;2023-05-23T07:03:51;22.60;94.20
49124;DHT22;48506;48.202;16.274;2023-05-23T07:06:17;22.80;94.10
49124;DHT22;48506;48.202;16.274;2023-05-23T07:08:44;22.90;94.00
49124;DHT22;48506;48.202;16.274;2023-05-23T07:11:11;23.10;93.50
49124;DHT22;48506;48.202;16.274;2023-05-23T07:13:37;23.20;93.90
49124;DHT22;48506;48.202;16.274;2023-05-23T07:16:03;23.30;92.90
49124;DHT22;48506;48.202;16.274;2023-05-23T07:18:30;23.40;93.40
49124;DHT22;48506;48.202;16.274;2023-05-23T07:20:56;23.50;93.10
49124;DHT22;48506;48.202;16.274;2023-05-23T07:23:24;23.70;92.90
49124;DHT22;48506;48.202;16.274;2023-05-23T07:25:50;23.90;93.00
49124;DHT22;48506;48.202;16.274;2023-05-23T07:28:18;24.00;91.70
49124;DHT22;48506;48.202;16.274;2023-05-23T07:30:44;24.10;91.30
49124;DHT22;48506;48.202;16.274;2023-05-23T07:33:11;24.20;90.40
49124;DHT22;48506;48.202;16.274;2023-05-23T07:35:37;24.30;90.40
49124;DHT22;48506;48.202;16.274;2023-05-23T07:38:02;24.30;89.30
49124;DHT22;48506;48.202;16.274;2023-05-23T07:40:29;24.40;89.40
49124;DHT22;48506;48.202;16.274;2023-05-23T07:42:55;24.50;90.60
49124;DHT22;48506;48.202;16.274;2023-05-23T07:45:21;24.60;90.20
49124;DHT22;48506;48.202;16.274;2023-05-23T07:47:46;24.80;89.10
49124;DHT22;48506;48.202;16.274;2023-05-23T07:50:14;24.90;88.40
49124;DHT22;48506;48.202;16.274;2023-05-23T07:52:40;25.00;86.30
49124;DHT22;48506;48.202;16.274;2023-05-23T07:55:07;25.00;88.30
49124;DHT22;48506;48.202;16.274;2023-05-23T07:57:33;25.00;87.50
49124;DHT22;48506;48.202;16.274;2023-05-23T07:59:59;25.00;85.60
49124;DHT22;48506;48.202;16.274;2023-05-23T08:02:25;25.00;85.60
49124;DHT22;48506;48.202;16.274;2023-05-23T08:04:52;25.10;86.70
49124;DHT22;48506;48.202;16.274;2023-05-23T08:07:18;25.20;86.20
49124;DHT22;48506;48.202;16.274;2023-05-23T08:09:44;25.30;86.40
49124;DHT22;48506;48.202;16.274;2023-05-23T08:12:10;25.50;85.50
49124;DHT22;48506;48.202;16.274;2023-05-23T08:14:36;25.70;86.30
49124;DHT22;48506;48.202;16.274;2023-05-23T08:17:02;25.80;84.30
49124;DHT22;48506;48.202;16.274;2023-05-23T08:19:29;25.90;84.00
49124;DHT22;48506;48.202;16.274;2023-05-23T08:21:54;25.90;83.60
49124;DHT22;48506;48.202;16.274;2023-05-23T08:24:21;25.90;82.80
49124;DHT22;48506;48.202;16.274;2023-05-23T08:26:49;25.80;82.60
49124;DHT22;48506;48.202;16.274;2023-05-23T08:29:15;25.90;82.90
49124;DHT22;48506;48.202;16.274;2023-05-23T08:31:41;26.10;84.50
49124;DHT22;48506;48.202;16.274;2023-05-23T08:34:07;26.40;83.70
49124;DHT22;48506;48.202;16.274;2023-05-23T08:36:33;26.60;83.20
49124;DHT22;48506;48.202;16.274;2023-05-23T08:39:02;26.80;81.70
49124;DHT22;48506;48.202;16.274;2023-05-23T08:41:29;27.00;81.40
49124;DHT22;48506;48.202;16.274;2023-05-23T08:43:56;27.10;80.40
49124;DHT22;48506;48.202;16.274;2023-05-23T08:46:22;27.20;79.90
49124;DHT22;48506;48.202;16.274;2023-05-23T08:48:52;27.30;80.50
49124;DHT22;48506;48.202;16.274;2023-05-23T08:51:21;27.20;79.80
49124;DHT22;48506;48.202;16.274;2023-05-23T08:53:50;27.20;80.40
49124;DHT22;48506;48.202;16.274;2023-05-23T08:56:18;27.20;79.40
49124;DHT22;48506;48.202;16.274;2023-05-23T08:58:45;27.40;80.50
49124;DHT22;48506;48.202;16.274;2023-05-23T09:01:13;27.60;80.30
49124;DHT22;48506;48.202;16.274;2023-05-23T09:03:40;27.80;79.50
49124;DHT22;48506;48.202;16.274;2023-05-23T09:06:09;28.00;78.90
49124;DHT22;48506;48.202;16.274;2023-05-23T09:08:36;28.10;78.00
49124;DHT22;48506;48.202;16.274;2023-05-23T09:11:05;28.10;78.20
49124;DHT22;48506;48.202;16.274;2023-05-23T09:13:33;28.10;75.50
49124;DHT22;48506;48.202;16.274;2023-05-23T09:16:03;28.10;74.90
49124;DHT22;48506;48.202;16.274;2023-05-23T09:18:37;28.20;77.20
49124;DHT22;48506;48.202;16.274;2023-05-23T09:21:04;28.40;75.20
49124;DHT22;48506;48.202;16.274;2023-05-23T09:23:34;28.30;74.30
49124;DHT22;48506;48.202;16.274;2023-05-23T09:26:08;28.20;75.60
49124;DHT22;48506;48.202;16.274;2023-05-23T09:28:37;28.20;75.60
49124;DHT22;48506;48.202;16.274;2023-05-23T09:31:05;28.30;74.80
49124;DHT22;48506;48.202;16.274;2023-05-23T09:33:49;28.40;75.10
49124;DHT22;48506;48.202;16.274;2023-05-23T09:36:17;28.50;73.50
49124;DHT22;48506;48.202;16.274;2023-05-23T09:38:45;28.50;73.50
49124;DHT22;48506;48.202;16.274;2023-05-23T09:41:12;28.50;73.70
49124;DHT22;48506;48.202;16.274;2023-05-23T09:43:53;28.40;73.50
49124;DHT22;48506;48.202;16.274;2023-05-23T09:46:21;28.60;75.90
49124;DHT22;48506;48.202;16.274;2023-05-23T09:48:48;28.80;72.60
49124;DHT22;48506;48.202;16.274;2023-05-23T09:51:19;28.70;72.40
49124;DHT22;48506;48.202;16.274;2023-05-23T09:53:49;28.70;72.80
49124;DHT22;48506;48.202;16.274;2023-05-23T09:56:16;28.80;72.40
49124;DHT22;48506;48.202;16.274;2023-05-23T09:58:47;28.80;74.30
49124;DHT22;48506;48.202;16.274;2023-05-23T10:01:14;29.00;73.00
49124;DHT22;48506;48.202;16.274;2023-05-23T10:03:53;29.10;72.50
49124;DHT22;48506;48.202;16.274;2023-05-23T10:06:36;29.20;71.60
49124;DHT22;48506;48.202;16.274;2023-05-23T10:09:05;29.20;73.60
49124;DHT22;48506;48.202;16.274;2023-05-23T10:14:05;29.60;72.30
49124;DHT22;48506;48.202;16.274;2023-05-23T10:21:47;29.50;70.60
49124;DHT22;48506;48.202;16.274;2023-05-23T10:24:16;29.40;70.10
49124;DHT22;48506;48.202;16.274;2023-05-23T10:26:45;29.40;72.70
49124;DHT22;48506;48.202;16.274;2023-05-23T10:29:11;29.60;70.50
49124;DHT22;48506;48.202;16.274;2023-05-23T10:31:37;29.70;70.30
49124;DHT22;48506;48.202;16.274;2023-05-23T10:37:00;29.80;69.10
49124;DHT22;48506;48.202;16.274;2023-05-23T10:39:30;29.60;69.70
49124;DHT22;48506;48.202;16.274;2023-05-23T10:42:02;29.60;71.60
49124;DHT22;48506;48.202;16.274;2023-05-23T10:44:30;29.70;70.30
49124;DHT22;48506;48.202;16.274;2023-05-23T10:47:00;29.90;72.00
49124;DHT22;48506;48.202;16.274;2023-05-23T10:49:48;30.10;71.40
49124;DHT22;48506;48.202;16.274;2023-05-23T10:52:16;30.30;68.70
49124;DHT22;48506;48.202;16.274;2023-05-23T10:54:45;30.20;68.50
49124;DHT22;48506;48.202;16.274;2023-05-23T10:57:15;30.00;70.00
49124;DHT22;48506;48.202;16.274;2023-05-23T10:59:44;30.10;70.90
49124;DHT22;48506;48.202;16.274;2023-05-23T11:02:16;30.20;70.70
49124;DHT22;48506;48.202;16.274;2023-05-23T11:04:43;30.40;70.00
49124;DHT22;48506;48.202;16.274;2023-05-23T11:07:32;30.40;71.00
49124;DHT22;48506;48.202;16.274;2023-05-23T11:10:11;30.40;70.10
49124;DHT22;48506;48.202;16.274;2023-05-23T11:12:42;30.40;70.90
49124;DHT22;48506;48.202;16.274;2023-05-23T11:17:56;30.40;67.70
49124;DHT22;48506;48.202;16.274;2023-05-23T11:20:26;30.20;66.00
49124;DHT22;48506;48.202;16.274;2023-05-23T11:23:00;30.10;66.90
49124;DHT22;48506;48.202;16.274;2023-05-23T11:25:49;30.20;67.70
49124;DHT22;48506;48.202;16.274;2023-05-23T11:28:17;30.30;64.60
49124;DHT22;48506;48.202;16.274;2023-05-23T11:30:47;30.20;65.30
49124;DHT22;48506;48.202;16.274;2023-05-23T11:33:15;30.20;65.10
49124;DHT22;48506;48.202;16.274;2023-05-23T11:35:45;29.90;66.10
49124;DHT22;48506;48.202;16.274;2023-05-23T11:38:15;29.50;65.30
49124;DHT22;48506;48.202;16.274;2023-05-23T11:40:43;29.10;66.10
49124;DHT22;48506;48.202;16.274;2023-05-23T11:43:12;28.80;67.20
49124;DHT22;48506;48.202;16.274;2023-05-23T11:45:40;28.60;67.30
49124;DHT22;48506;48.202;16.274;2023-05-23T11:48:24;28.60;68.30
49124;DHT22;48506;48.202;16.274;2023-05-23T11:50:52;28.60;68.90
49124;DHT22;48506;48.202;16.274;2023-05-23T11:53:20;28.70;70.50
49124;DHT22;48506;48.202;16.274;2023-05-23T11:55:53;28.90;70.70
49124;DHT22;48506;48.202;16.274;2023-05-23T11:58:32;29.10;70.60
49124;DHT22;48506;48.202;16.274;2023-05-23T12:01:04;29.10;69.80
49124;DHT22;48506;48.202;16.274;2023-05-23T12:03:43;29.00;70.60
49124;DHT22;48506;48.202;16.274;2023-05-23T12:06:09;29.00;68.10
49124;DHT22;48506;48.202;16.274;2023-05-23T12:08:35;29.10;69.90
49124;DHT22;48506;48.202;16.274;2023-05-23T12:11:02;29.30;67.70
49124;DHT22;48506;48.202;16.274;2023-05-23T12:13:29;29.30;68.70
49124;DHT22;48506;48.202;16.274;2023-05-23T12:15:56;29.50;68.30
49124;DHT22;48506;48.202;16.274;2023-05-23T12:18:27;29.50;69.80
49124;DHT22;48506;48.202;16.274;2023-05-23T12:21:02;29.60;68.70
49124;DHT22;48506;48.202;16.274;2023-05-23T12:23:30;29.80;68.70
49124;DHT22;48506;48.202;16.274;2023-05-23T12:25:57;30.00;68.00
49124;DHT22;48506;48.202;16.274;2023-05-23T12:28:39;30.10;69.00
49124;DHT22;48506;48.202;16.274;2023-05-23T12:33:41;30.30;68.20
49124;DHT22;48506;48.202;16.274;2023-05-23T12:36:22;30.10;67.70
49124;DHT22;48506;48.202;16.274;2023-05-23T12:38:49;29.90;66.20
49124;DHT22;48506;48.202;16.274;2023-05-23T12:41:17;29.70;66.70
49124;DHT22;48506;48.202;16.274;2023-05-23T12:43:54;29.50;67.80
49124;DHT22;48506;48.202;16.274;2023-05-23T12:46:24;29.20;68.40
49124;DHT22;48506;48.202;16.274;2023-05-23T12:48:52;29.00;68.20
49124;DHT22;48506;48.202;16.274;2023-05-23T12:51:20;28.80;70.00
49124;DHT22;48506;48.202;16.274;2023-05-23T12:53:46;28.80;67.10
49124;DHT22;48506;48.202;16.274;2023-05-23T12:56:13;28.60;68.50
49124;DHT22;48506;48.202;16.274;2023-05-23T12:58:39;28.50;68.60
49124;DHT22;48506;48.202;16.274;2023-05-23T13:01:04;28.30;70.30
49124;DHT22;48506;48.202;16.274;2023-05-23T13:03:30;28.30;69.80
49124;DHT22;48506;48.202;16.274;2023-05-23T13:05:58;28.50;72.20
49124;DHT22;48506;48.202;16.274;2023-05-23T13:08:25;28.70;72.10
49124;DHT22;48506;48.202;16.274;2023-05-23T13:10:54;28.90;70.80
49124;DHT22;48506;48.202;16.274;2023-05-23T13:13:20;29.10;69.30
49124;DHT22;48506;48.202;16.274;2023-05-23T13:15:47;29.00;70.40
49124;DHT22;48506;48.202;16.274;2023-05-23T13:18:13;28.80;69.60
49124;DHT22;48506;48.202;16.274;2023-05-23T13:20:40;28.80;70.80
49124;DHT22;48506;48.202;16.274;2023-05-23T13:23:07;28.70;71.40
49124;DHT22;48506;48.202;16.274;2023-05-23T13:25:34;28.60;71.00
49124;DHT22;48506;48.202;16.274;2023-05-23T13:28:00;28.50;72.60
49124;DHT22;48506;48.202;16.274;2023-05-23T13:30:27;28.30;71.30
49124;DHT22;48506;48.202;16.274;2023-05-23T13:32:53;28.10;71.70
49124;DHT22;48506;48.202;16.274;2023-05-23T13:35:20;27.90;72.20
49124;DHT22;48506;48.202;16.274;2023-05-23T13:37:46;27.70;73.40
49124;DHT22;48506;48.202;16.274;2023-05-23T13:40:16;27.50;74.00
49124;DHT22;48506;48.202;16.274;2023-05-23T13:42:43;27.40;74.40
49124;DHT22;48506;48.202;16.274;2023-05-23T13:45:10;27.20;74.40
49124;DHT22;48506;48.202;16.274;2023-05-23T13:47:36;27.00;74.60
49124;DHT22;48506;48.202;16.274;2023-05-23T13:50:03;26.90;75.60
49124;DHT22;48506;48.202;16.274;2023-05-23T13:52:30;26.80;75.70
49124;DHT22;48506;48.202;16.274;2023-05-23T13:54:56;26.70;76.60
49124;DHT22;48506;48.202;16.274;2023-05-23T13:57:21;26.60;77.40
49124;DHT22;48506;48.202;16.274;2023-05-23T13:59:47;26.40;77.70
49124;DHT22;48506;48.202;16.274;2023-05-23T14:02:13;26.20;77.00
49124;DHT22;48506;48.202;16.274;2023-05-23T14:04:40;25.90;77.20
49124;DHT22;48506;48.202;16.274;2023-05-23T14:07:06;25.60;76.90
49124;DHT22;48506;48.202;16.274;2023-05-23T14:09:32;25.30;78.70
49124;DHT22;48506;48.202;16.274;2023-05-23T14:11:58;25.00;79.50
49124;DHT22;48506;48.202;16.274;2023-05-23T14:14:25;24.70;82.30
49124;DHT22;48506;48.202;16.274;2023-05-23T14:16:52;24.40;85.10
49124;DHT22;48506;48.202;16.274;2023-05-23T14:19:18;23.80;85.10
49124;DHT22;48506;48.202;16.274;2023-05-23T14:21:44;23.30;87.40
49124;DHT22;48506;48.202;16.274;2023-05-23T14:24:10;22.90;89.60
49124;DHT22;48506;48.202;16.274;2023-05-23T14:26:36;22.60;89.60
49124;DHT22;48506;48.202;16.274;2023-05-23T14:29:02;22.30;90.60
49124;DHT22;48506;48.202;16.274;2023-05-23T14:31:29;22.00;91.80
49124;DHT22;48506;48.202;16.274;2023-05-23T14:33:55;21.90;93.10
49124;DHT22;48506;48.202;16.274;2023-05-23T14:36:21;21.70;93.20
49124;DHT22;48506;48.202;16.274;2023-05-23T14:38:47;21.60;93.40
49124;DHT22;48506;48.202;16.274;2023-05-23T14:41:15;21.50;94.10
49124;DHT22;48506;48.202;16.274;2023-05-23T14:43:43;21.50;94.00
49124;DHT22;48506;48.202;16.274;2023-05-23T14:46:09;21.50;94.20
49124;DHT22;48506;48.202;16.274;2023-05-23T14:48:35;21.50;94.60
49124;DHT22;48506;48.202;16.274;2023-05-23T14:51:01;21.50;95.00
49124;DHT22;48506;48.202;16.274;2023-05-23T14:53:27;21.40;95.20
49124;DHT22;48506;48.202;16.274;2023-05-23T14:55:53;21.40;95.80
49124;DHT22;48506;48.202;16.274;2023-05-23T14:58:22;21.40;96.40
49124;DHT22;48506;48.202;16.274;2023-05-23T15:00:51;21.50;96.60
49124;DHT22;48506;48.202;16.274;2023-05-23T15:03:19;21.40;97.10
49124;DHT22;48506;48.202;16.274;2023-05-23T15:05:46;21.40;97.20
49124;DHT22;48506;48.202;16.274;2023-05-23T15:08:12;21.40;97.20
49124;DHT22;48506;48.202;16.274;2023-05-23T15:10:38;21.30;97.50
49124;DHT22;48506;48.202;16.274;2023-05-23T15:13:04;21.30;97.80
49124;DHT22;48506;48.202;16.274;2023-05-23T15:15:29;21.20;97.80
49124;DHT22;48506;48.202;16.274;2023-05-23T15:18:05;21.20;97.60
49124;DHT22;48506;48.202;16.274;2023-05-23T15:20:35;21.00;97.60
49124;DHT22;48506;48.202;16.274;2023-05-23T15:23:03;20.90;98.10
49124;DHT22;48506;48.202;16.274;2023-05-23T15:25:29;20.80;98.40
49124;DHT22;48506;48.202;16.274;2023-05-23T15:27:56;20.70;98.90
49124;DHT22;48506;48.202;16.274;2023-05-23T15:30:22;20.60;99.40
49124;DHT22;48506;48.202;16.274;2023-05-23T15:32:49;20.50;99.80
49124;DHT22;48506;48.202;16.274;2023-05-23T15:35:16;20.20;99.90
49124;DHT22;48506;48.202;16.274;2023-05-23T15:37:42;20.10;99.90
49124;DHT22;48506;48.202;16.274;2023-05-23T15:40:10;20.00;99.90
49124;DHT22;48506;48.202;16.274;2023-05-23T15:42:37;20.00;99.90